Time;durP1;ratioP1;P1;durP2;ratioP2;P2;SDS_P1;SDS_P2;PMS_P1;PMS_P2;Temp;Humidity;BMP_temperature;BMP_pressure;BME280_temperature;BME280_humidity;BME280_pressure;Samples;Min_cycle;Max_cycle;Signal;HPM_P1;HPM_P2
2023/06/06 00:00:53;;;;;;;;;;;13.60;99.90;;;;;;5057162;28;19908;-84
2023/06/06 00:03:20;;;;;;;;;;;13.60;99.90;;;;;;5073946;28;20005;-84
2023/06/06 00:05:48;;;;;;;;;;;13.50;99.90;;;;;;5056956;28;19912;-83
2023/06/06 00:08:13;;;;;;;;;;;13.50;99.90;;;;;;5073734;28;19978;-84
2023/06/06 00:10:39;;;;;;;;;;;13.40;99.90;;;;;;5056620;28;19912;-84
2023/06/06 00:13:05;;;;;;;;;;;13.40;99.90;;;;;;5074269;28;19995;-83
2023/06/06 00:15:31;;;;;;;;;;;13.40;99.90;;;;;;5072548;28;19912;-84
2023/06/06 00:17:58;;;;;;;;;;;13.30;99.90;;;;;;5073566;28;19908;-84
2023/06/06 00:20:24;;;;;;;;;;;13.30;99.90;;;;;;5073726;28;19912;-84
2023/06/06 00:22:53;;;;;;;;;;;13.20;99.90;;;;;;5072625;28;20257;-84
2023/06/06 00:25:18;;;;;;;;;;;13.20;99.90;;;;;;5074566;28;19912;-84
2023/06/06 00:27:44;;;;;;;;;;;13.20;99.90;;;;;;5073354;28;19909;-84
2023/06/06 00:30:10;;;;;;;;;;;13.20;99.90;;;;;;5056420;28;19909;-84
2023/06/06 00:32:35;;;;;;;;;;;13.10;99.90;;;;;;5054867;28;19908;-84
2023/06/06 00:35:07;;;;;;;;;;;13.20;99.90;;;;;;5072987;28;20337;-84
2023/06/06 00:37:33;;;;;;;;;;;13.10;99.90;;;;;;5072752;28;19995;-84
2023/06/06 00:39:59;;;;;;;;;;;13.10;99.90;;;;;;5073007;28;19947;-84
2023/06/06 00:42:24;;;;;;;;;;;13.10;99.90;;;;;;5072852;28;19915;-84
2023/06/06 00:44:50;;;;;;;;;;;13.00;99.90;;;;;;5090155;28;19912;-85
2023/06/06 00:47:16;;;;;;;;;;;13.10;99.90;;;;;;5073113;28;20294;-84
2023/06/06 00:49:49;;;;;;;;;;;13.00;99.90;;;;;;5072913;28;19912;-84
2023/06/06 00:52:16;;;;;;;;;;;13.10;99.90;;;;;;5090040;28;19969;-84
2023/06/06 00:54:42;;;;;;;;;;;13.00;99.90;;;;;;5056278;28;19897;-84
2023/06/06 00:57:09;;;;;;;;;;;13.00;99.90;;;;;;5056035;28;19957;-85
2023/06/06 00:59:36;;;;;;;;;;;13.00;99.90;;;;;;5072423;28;20011;-84
2023/06/06 01:02:17;;;;;;;;;;;12.90;99.90;;;;;;5072871;28;19909;-84
2023/06/06 01:04:43;;;;;;;;;;;12.80;99.90;;;;;;5069485;28;19908;-84
2023/06/06 01:07:12;;;;;;;;;;;12.90;99.90;;;;;;5075277;28;19912;-84
2023/06/06 01:09:41;;;;;;;;;;;12.90;99.90;;;;;;5068696;28;19911;-85
2023/06/06 01:12:25;;;;;;;;;;;12.90;99.90;;;;;;5057779;28;19908;-84
2023/06/06 01:15:02;;;;;;;;;;;12.90;99.90;;;;;;5083841;28;19914;-84
2023/06/06 01:17:27;;;;;;;;;;;12.80;99.90;;;;;;5072517;28;19958;-84
2023/06/06 01:19:56;;;;;;;;;;;12.80;99.90;;;;;;5072716;28;19909;-84
2023/06/06 01:22:27;;;;;;;;;;;12.80;99.90;;;;;;5055732;28;19916;-84
2023/06/06 01:24:53;;;;;;;;;;;12.70;99.90;;;;;;5072842;28;19909;-85
2023/06/06 01:27:21;;;;;;;;;;;12.60;99.90;;;;;;5074500;28;19971;-84
2023/06/06 01:29:47;;;;;;;;;;;12.70;99.90;;;;;;5059865;28;19908;-85
2023/06/06 01:32:25;;;;;;;;;;;12.70;99.90;;;;;;5060213;28;19908;-84
2023/06/06 01:35:07;;;;;;;;;;;12.60;99.90;;;;;;5078984;28;20270;-84
2023/06/06 01:37:35;;;;;;;;;;;12.60;99.90;;;;;;5076720;28;20363;-84
2023/06/06 01:40:04;;;;;;;;;;;12.50;99.90;;;;;;5059525;28;19904;-84
2023/06/06 01:42:30;;;;;;;;;;;12.50;99.90;;;;;;5076625;28;19909;-84
2023/06/06 01:45:06;;;;;;;;;;;12.60;99.90;;;;;;5076423;28;19931;-84
2023/06/06 01:47:33;;;;;;;;;;;12.50;99.90;;;;;;5076667;28;20359;-84
2023/06/06 01:49:58;;;;;;;;;;;12.50;99.90;;;;;;5076235;28;19908;-84
2023/06/06 01:52:28;;;;;;;;;;;12.50;99.90;;;;;;5076020;28;19912;-84
2023/06/06 01:54:54;;;;;;;;;;;12.50;99.90;;;;;;5075976;28;19908;-84
2023/06/06 01:57:20;;;;;;;;;;;12.50;99.90;;;;;;5093276;28;19905;-84
2023/06/06 01:59:45;;;;;;;;;;;12.40;99.90;;;;;;5058241;28;19915;-84
2023/06/06 02:02:11;;;;;;;;;;;12.40;99.90;;;;;;5060331;28;19970;-84
2023/06/06 02:04:37;;;;;;;;;;;12.40;99.90;;;;;;5058700;28;19995;-84
2023/06/06 02:07:03;;;;;;;;;;;12.40;99.90;;;;;;5076304;28;20689;-84
2023/06/06 02:09:29;;;;;;;;;;;12.40;99.90;;;;;;5059327;28;19948;-84
2023/06/06 02:11:54;;;;;;;;;;;12.30;99.90;;;;;;5058933;28;20050;-84
2023/06/06 02:14:20;;;;;;;;;;;12.30;99.90;;;;;;5075504;28;19909;-84
2023/06/06 02:16:48;;;;;;;;;;;12.20;99.90;;;;;;5059665;28;20305;-84
2023/06/06 02:19:15;;;;;;;;;;;12.20;99.90;;;;;;5058846;28;19912;-84
2023/06/06 02:21:41;;;;;;;;;;;12.20;99.90;;;;;;5076506;28;19909;-84
2023/06/06 02:24:07;;;;;;;;;;;12.10;99.90;;;;;;5059561;28;19909;-84
2023/06/06 02:26:35;;;;;;;;;;;12.00;99.90;;;;;;5075933;28;20313;-83
2023/06/06 02:29:02;;;;;;;;;;;12.00;99.90;;;;;;5060200;28;19913;-84
2023/06/06 02:31:29;;;;;;;;;;;11.90;99.90;;;;;;5075999;28;19908;-84
2023/06/06 02:33:54;;;;;;;;;;;11.90;99.90;;;;;;5059265;28;19913;-84
2023/06/06 02:36:20;;;;;;;;;;;11.80;99.90;;;;;;5059067;28;20252;-84
2023/06/06 02:38:46;;;;;;;;;;;11.80;99.90;;;;;;5074941;28;19908;-84
2023/06/06 02:41:11;;;;;;;;;;;11.80;99.90;;;;;;5059117;28;20573;-84
2023/06/06 02:43:39;;;;;;;;;;;11.70;99.90;;;;;;5058711;28;19923;-84
2023/06/06 02:46:07;;;;;;;;;;;11.70;99.90;;;;;;5075312;28;19947;-84
2023/06/06 02:48:33;;;;;;;;;;;11.70;99.90;;;;;;5073163;28;19909;-84
2023/06/06 02:51:00;;;;;;;;;;;11.60;99.90;;;;;;5058550;28;19912;-84
2023/06/06 02:53:27;;;;;;;;;;;11.60;99.90;;;;;;5075380;28;19931;-84
2023/06/06 02:55:52;;;;;;;;;;;11.70;99.90;;;;;;5075283;28;20010;-84
2023/06/06 02:58:27;;;;;;;;;;;11.70;99.90;;;;;;5075495;28;19955;-84
2023/06/06 03:00:54;;;;;;;;;;;11.70;99.90;;;;;;5086876;28;19915;-84
2023/06/06 03:03:20;;;;;;;;;;;11.60;99.90;;;;;;5074906;28;19915;-84
2023/06/06 03:05:51;;;;;;;;;;;11.60;99.90;;;;;;5074920;28;19916;-84
2023/06/06 03:08:17;;;;;;;;;;;11.50;99.90;;;;;;5075400;28;19940;-84
2023/06/06 03:10:46;;;;;;;;;;;11.50;99.90;;;;;;5074950;28;19908;-85
2023/06/06 03:13:13;;;;;;;;;;;11.50;99.90;;;;;;5075115;28;20279;-84
2023/06/06 03:15:44;;;;;;;;;;;11.40;99.90;;;;;;5057333;28;19912;-84
2023/06/06 03:18:11;;;;;;;;;;;11.50;99.90;;;;;;5074434;28;19938;-84
2023/06/06 03:20:40;;;;;;;;;;;11.60;99.90;;;;;;5058458;28;19912;-84
2023/06/06 03:23:11;;;;;;;;;;;11.60;99.90;;;;;;5057954;28;19908;-87
2023/06/06 03:25:41;;;;;;;;;;;11.60;99.90;;;;;;5074517;28;19913;-87
2023/06/06 03:28:07;;;;;;;;;;;11.50;99.90;;;;;;5058070;28;19908;-86
2023/06/06 03:30:33;;;;;;;;;;;11.50;99.90;;;;;;5058497;28;19917;-87
2023/06/06 03:33:00;;;;;;;;;;;11.50;99.90;;;;;;5074365;28;19913;-88
2023/06/06 03:35:28;;;;;;;;;;;11.60;99.90;;;;;;5057614;28;19977;-87
2023/06/06 03:37:57;;;;;;;;;;;11.60;99.90;;;;;;5058162;28;19915;-87
2023/06/06 03:40:23;;;;;;;;;;;11.70;99.90;;;;;;5057774;28;19987;-87
2023/06/06 03:42:50;;;;;;;;;;;11.80;99.90;;;;;;5074450;28;20642;-87
2023/06/06 03:45:20;;;;;;;;;;;11.80;99.90;;;;;;5057717;28;20038;-87
2023/06/06 03:47:46;;;;;;;;;;;11.80;99.90;;;;;;5075377;28;19912;-87
2023/06/06 03:50:12;;;;;;;;;;;11.90;99.90;;;;;;5056433;28;19904;-86
2023/06/06 03:52:40;;;;;;;;;;;12.00;99.90;;;;;;5073921;28;20267;-87
2023/06/06 03:55:06;;;;;;;;;;;12.10;99.90;;;;;;5085785;28;19958;-87
2023/06/06 03:57:31;;;;;;;;;;;12.20;99.90;;;;;;5073639;28;20347;-86
2023/06/06 04:00:13;;;;;;;;;;;12.20;99.90;;;;;;5074529;28;19957;-86
2023/06/06 04:02:41;;;;;;;;;;;12.20;99.90;;;;;;5057335;28;19908;-87
2023/06/06 04:05:08;;;;;;;;;;;12.20;99.90;;;;;;5082088;28;19905;-87
2023/06/06 04:07:34;;;;;;;;;;;12.30;99.90;;;;;;5056837;28;20284;-87
2023/06/06 04:10:00;;;;;;;;;;;12.30;99.90;;;;;;5057626;28;19908;-86
2023/06/06 04:12:25;;;;;;;;;;;12.40;99.90;;;;;;5057101;28;19919;-88
2023/06/06 04:14:51;;;;;;;;;;;12.50;99.90;;;;;;5057773;28;19911;-87
2023/06/06 04:17:21;;;;;;;;;;;12.50;99.90;;;;;;5073686;28;19908;-86
2023/06/06 04:19:49;;;;;;;;;;;12.60;99.90;;;;;;5073854;28;19915;-87
2023/06/06 04:22:15;;;;;;;;;;;12.70;99.90;;;;;;5074058;28;19966;-86
2023/06/06 04:24:41;;;;;;;;;;;12.80;99.90;;;;;;5074380;28;19912;-87
2023/06/06 04:27:07;;;;;;;;;;;12.90;99.90;;;;;;5073895;28;19926;-87
2023/06/06 04:29:33;;;;;;;;;;;13.00;99.90;;;;;;5073764;28;19948;-85
2023/06/06 04:32:00;;;;;;;;;;;13.10;99.90;;;;;;5070628;28;19912;-87
2023/06/06 04:34:29;;;;;;;;;;;13.20;99.90;;;;;;5073265;28;20282;-87
2023/06/06 04:37:01;;;;;;;;;;;13.30;99.90;;;;;;5057021;28;19908;-87
2023/06/06 04:39:28;;;;;;;;;;;13.30;99.90;;;;;;5073137;28;19915;-87
2023/06/06 04:41:56;;;;;;;;;;;13.40;99.90;;;;;;5056874;28;19913;-86
2023/06/06 04:44:23;;;;;;;;;;;13.40;99.90;;;;;;5073582;28;19908;-87
2023/06/06 04:46:52;;;;;;;;;;;13.50;99.90;;;;;;5056646;28;20355;-87
2023/06/06 04:49:18;;;;;;;;;;;13.60;99.90;;;;;;5056976;28;19915;-87
2023/06/06 04:51:44;;;;;;;;;;;13.70;99.90;;;;;;5073580;28;20314;-86
2023/06/06 04:54:10;;;;;;;;;;;13.90;99.90;;;;;;5057159;28;19912;-87
2023/06/06 04:56:38;;;;;;;;;;;14.00;99.90;;;;;;5073177;28;19955;-87
2023/06/06 04:59:07;;;;;;;;;;;14.10;99.90;;;;;;5073837;28;19973;-87
2023/06/06 05:01:36;;;;;;;;;;;14.30;99.90;;;;;;5056645;28;19936;-87
2023/06/06 05:04:02;;;;;;;;;;;14.40;99.90;;;;;;5056914;28;19909;-87
2023/06/06 05:06:31;;;;;;;;;;;14.50;99.90;;;;;;5073152;28;19918;-86
2023/06/06 05:09:07;;;;;;;;;;;14.60;99.90;;;;;;5056248;28;19995;-87
2023/06/06 05:11:33;;;;;;;;;;;14.70;99.90;;;;;;5073070;28;19908;-87
2023/06/06 05:13:59;;;;;;;;;;;14.70;99.90;;;;;;5056282;28;19995;-86
2023/06/06 05:16:25;;;;;;;;;;;14.80;99.90;;;;;;5073035;28;19939;-87
2023/06/06 05:18:50;;;;;;;;;;;15.00;99.90;;;;;;5056627;28;19919;-88
2023/06/06 05:21:16;;;;;;;;;;;15.10;99.90;;;;;;5072684;28;20026;-87
2023/06/06 05:23:41;;;;;;;;;;;15.20;99.90;;;;;;5056703;28;20279;-87
2023/06/06 05:26:07;;;;;;;;;;;15.30;99.90;;;;;;5072881;28;20298;-88
2023/06/06 05:28:33;;;;;;;;;;;15.40;99.90;;;;;;5072867;28;19904;-88
2023/06/06 05:31:00;;;;;;;;;;;15.50;99.90;;;;;;5060869;28;19908;-86
2023/06/06 05:33:25;;;;;;;;;;;15.60;99.90;;;;;;5061346;28;19912;-87
2023/06/06 05:35:52;;;;;;;;;;;15.70;99.90;;;;;;5072584;28;19916;-88
2023/06/06 05:38:19;;;;;;;;;;;15.80;99.90;;;;;;5062542;28;19931;-87
2023/06/06 05:40:44;;;;;;;;;;;15.80;99.90;;;;;;5060495;28;20562;-87
2023/06/06 05:43:10;;;;;;;;;;;15.90;99.90;;;;;;5063341;28;19912;-87
2023/06/06 05:45:36;;;;;;;;;;;15.90;99.90;;;;;;5065504;28;19912;-87
2023/06/06 05:48:02;;;;;;;;;;;16.00;99.90;;;;;;5055091;28;19963;-87
2023/06/06 05:50:28;;;;;;;;;;;16.10;99.90;;;;;;5070187;28;19892;-89
2023/06/06 05:52:54;;;;;;;;;;;16.20;99.90;;;;;;5069632;28;19941;-87
2023/06/06 05:55:30;;;;;;;;;;;16.30;99.90;;;;;;5068820;28;19916;-86
2023/06/06 05:57:55;;;;;;;;;;;16.40;99.90;;;;;;5061389;28;19915;-86
2023/06/06 06:00:22;;;;;;;;;;;16.50;99.90;;;;;;5065480;28;19916;-87
2023/06/06 06:02:51;;;;;;;;;;;16.70;99.90;;;;;;5070581;28;20379;-87
2023/06/06 06:05:20;;;;;;;;;;;16.70;99.90;;;;;;5054688;28;20058;-86
2023/06/06 06:07:47;;;;;;;;;;;16.90;99.90;;;;;;5068313;28;19912;-87
2023/06/06 06:10:13;;;;;;;;;;;17.00;99.90;;;;;;5062532;28;19915;-87
2023/06/06 06:12:39;;;;;;;;;;;17.00;99.90;;;;;;5060411;28;19909;-87
2023/06/06 06:15:05;;;;;;;;;;;17.20;99.90;;;;;;5068041;28;19912;-88
2023/06/06 06:17:30;;;;;;;;;;;17.30;99.90;;;;;;5069935;28;19916;-87
2023/06/06 06:19:56;;;;;;;;;;;17.40;99.90;;;;;;5056548;28;19908;-87
2023/06/06 06:22:22;;;;;;;;;;;17.50;99.90;;;;;;5062020;28;19908;-86
2023/06/06 06:24:49;;;;;;;;;;;17.50;99.90;;;;;;5070658;28;19909;-88
2023/06/06 06:27:15;;;;;;;;;;;17.60;99.90;;;;;;5063027;28;20529;-87
2023/06/06 06:29:40;;;;;;;;;;;17.70;99.90;;;;;;5086436;28;20098;-86
2023/06/06 06:32:06;;;;;;;;;;;17.80;99.90;;;;;;5084598;28;19948;-87
2023/06/06 06:34:33;;;;;;;;;;;17.80;99.90;;;;;;5083204;28;19904;-87
2023/06/06 06:36:59;;;;;;;;;;;17.90;99.90;;;;;;5068249;28;19942;-87
2023/06/06 06:39:25;;;;;;;;;;;17.90;99.90;;;;;;5066560;28;19909;-87
2023/06/06 06:41:52;;;;;;;;;;;17.90;99.90;;;;;;5067649;28;19909;-87
2023/06/06 06:44:18;;;;;;;;;;;18.00;99.90;;;;;;5055468;28;19949;-88
2023/06/06 06:46:44;;;;;;;;;;;18.20;99.90;;;;;;5070974;28;19956;-88
2023/06/06 06:49:14;;;;;;;;;;;18.20;99.90;;;;;;5059995;28;19909;-88
2023/06/06 06:51:41;;;;;;;;;;;18.10;99.90;;;;;;5078458;28;20554;-87
2023/06/06 06:54:10;;;;;;;;;;;18.20;99.90;;;;;;5073039;28;19908;-87
2023/06/06 06:56:36;;;;;;;;;;;18.40;99.90;;;;;;5056603;28;20312;-86
2023/06/06 06:59:03;;;;;;;;;;;18.40;99.90;;;;;;5074779;28;19995;-89
2023/06/06 07:01:29;;;;;;;;;;;18.50;99.90;;;;;;5051063;28;20283;-88
2023/06/06 07:03:55;;;;;;;;;;;18.60;99.90;;;;;;5073520;28;19918;-89
2023/06/06 07:06:22;;;;;;;;;;;18.60;99.90;;;;;;5059194;28;20050;-88
2023/06/06 07:08:49;;;;;;;;;;;18.70;99.90;;;;;;5060500;28;19908;-88
2023/06/06 07:11:15;;;;;;;;;;;18.70;99.90;;;;;;5064285;28;19916;-88
2023/06/06 07:13:41;;;;;;;;;;;18.80;99.90;;;;;;5074627;28;19915;-88
2023/06/06 07:16:08;;;;;;;;;;;19.10;99.90;;;;;;5066053;28;19908;-88
2023/06/06 07:18:34;;;;;;;;;;;20.10;99.90;;;;;;5065878;28;20347;-87
2023/06/06 07:21:00;;;;;;;;;;;21.30;99.90;;;;;;5055550;28;19951;-88
2023/06/06 07:23:25;;;;;;;;;;;22.40;99.90;;;;;;5049234;28;20633;-87
2023/06/06 07:25:52;;;;;;;;;;;23.40;99.90;;;;;;5068486;28;20348;-88
2023/06/06 07:28:18;;;;;;;;;;;24.40;99.80;;;;;;5052282;28;19915;-87
2023/06/06 07:30:44;;;;;;;;;;;25.40;97.30;;;;;;5073834;28;19912;-87
2023/06/06 07:33:10;;;;;;;;;;;25.80;93.90;;;;;;5072164;28;19954;-87
2023/06/06 07:35:36;;;;;;;;;;;26.20;91.10;;;;;;5069257;28;19909;-86
2023/06/06 07:38:02;;;;;;;;;;;25.60;89.80;;;;;;5061491;28;20265;-86
2023/06/06 07:40:28;;;;;;;;;;;24.80;91.40;;;;;;5063577;28;19908;-89
2023/06/06 07:42:54;;;;;;;;;;;23.70;91.70;;;;;;5069882;28;19935;-89
2023/06/06 07:45:20;;;;;;;;;;;22.80;92.50;;;;;;5068015;28;19908;-87
2023/06/06 07:47:46;;;;;;;;;;;22.00;94.60;;;;;;5077246;28;19907;-87
2023/06/06 07:50:13;;;;;;;;;;;21.50;95.30;;;;;;5051118;28;19958;-88
2023/06/06 07:52:43;;;;;;;;;;;21.30;95.20;;;;;;5069862;28;19909;-88
2023/06/06 07:55:09;;;;;;;;;;;21.10;96.50;;;;;;5069398;28;19908;-87
2023/06/06 07:57:35;;;;;;;;;;;21.50;97.50;;;;;;5067222;28;19904;-89
2023/06/06 08:00:07;;;;;;;;;;;23.30;96.90;;;;;;5078467;28;19914;-88
2023/06/06 08:02:39;;;;;;;;;;;25.20;93.00;;;;;;5081172;28;19995;-88
2023/06/06 08:05:05;;;;;;;;;;;25.80;91.50;;;;;;5077661;28;19912;-88
2023/06/06 08:07:32;;;;;;;;;;;26.50;90.40;;;;;;5081080;28;20005;-88
2023/06/06 08:09:58;;;;;;;;;;;27.10;86.00;;;;;;5068243;28;19923;-87
2023/06/06 08:12:24;;;;;;;;;;;28.00;84.10;;;;;;5079003;28;19912;-88
2023/06/06 08:14:49;;;;;;;;;;;28.50;77.20;;;;;;5073680;28;19904;-88
2023/06/06 08:17:15;;;;;;;;;;;28.10;75.50;;;;;;5057663;28;19915;-88
2023/06/06 08:19:40;;;;;;;;;;;28.30;75.30;;;;;;5073957;28;19956;-87
2023/06/06 08:22:06;;;;;;;;;;;27.80;76.00;;;;;;5073948;28;20260;-89
2023/06/06 08:24:32;;;;;;;;;;;27.90;75.80;;;;;;5057611;28;19912;-88
2023/06/06 08:26:57;;;;;;;;;;;28.40;75.90;;;;;;5073718;28;20402;-87
2023/06/06 08:29:29;;;;;;;;;;;28.60;73.80;;;;;;5057227;28;19998;-87
2023/06/06 08:31:55;;;;;;;;;;;28.80;71.80;;;;;;5073326;28;19909;-87
2023/06/06 08:34:21;;;;;;;;;;;28.40;74.90;;;;;;5076119;28;20379;-88
2023/06/06 08:36:47;;;;;;;;;;;28.80;72.60;;;;;;5073139;28;20359;-88
2023/06/06 08:39:13;;;;;;;;;;;29.10;71.20;;;;;;5056825;28;19953;-89
2023/06/06 08:41:43;;;;;;;;;;;29.30;72.00;;;;;;5074529;28;19995;-88
2023/06/06 08:44:08;;;;;;;;;;;29.20;71.70;;;;;;5090296;28;20274;-87
2023/06/06 08:46:35;;;;;;;;;;;29.60;71.00;;;;;;5072971;28;20006;-89
2023/06/06 08:49:03;;;;;;;;;;;29.40;69.10;;;;;;5091389;28;19909;-87
2023/06/06 08:51:28;;;;;;;;;;;29.40;71.60;;;;;;5056294;28;19998;-87
2023/06/06 08:53:55;;;;;;;;;;;29.60;70.40;;;;;;5072690;28;19982;-87
2023/06/06 08:56:22;;;;;;;;;;;29.60;68.70;;;;;;5053886;28;19912;-88
2023/06/06 08:58:49;;;;;;;;;;;29.20;70.30;;;;;;5074300;28;19931;-88
2023/06/06 09:01:16;;;;;;;;;;;29.30;69.10;;;;;;5071185;28;20446;-87
2023/06/06 09:03:43;;;;;;;;;;;29.70;68.90;;;;;;5073516;28;19915;-88
2023/06/06 09:06:10;;;;;;;;;;;30.30;66.90;;;;;;5046661;28;19927;-88
2023/06/06 09:08:35;;;;;;;;;;;29.70;67.30;;;;;;5074209;28;20342;-88
2023/06/06 09:11:01;;;;;;;;;;;29.90;67.40;;;;;;5073314;28;19931;-87
2023/06/06 09:13:26;;;;;;;;;;;30.90;67.60;;;;;;5072985;28;19912;-88
2023/06/06 09:15:53;;;;;;;;;;;30.60;65.00;;;;;;5073326;28;19916;-87
2023/06/06 09:18:19;;;;;;;;;;;30.50;65.30;;;;;;5055927;28;19913;-88
2023/06/06 09:20:50;;;;;;;;;;;29.50;66.90;;;;;;5073606;28;19915;-87
2023/06/06 09:23:16;;;;;;;;;;;28.70;67.60;;;;;;5055708;28;19915;-88
2023/06/06 09:25:45;;;;;;;;;;;28.60;69.00;;;;;;5072042;28;20367;-89
2023/06/06 09:28:10;;;;;;;;;;;28.40;67.50;;;;;;5072151;28;19914;-88
2023/06/06 09:30:36;;;;;;;;;;;27.40;69.50;;;;;;5079966;28;19908;-88
2023/06/06 09:33:04;;;;;;;;;;;26.20;72.30;;;;;;5072580;28;19908;-87
2023/06/06 09:35:33;;;;;;;;;;;25.30;74.70;;;;;;5049481;28;19908;-88
2023/06/06 09:38:06;;;;;;;;;;;25.30;76.60;;;;;;5090380;28;19918;-88
2023/06/06 09:40:31;;;;;;;;;;;25.60;75.10;;;;;;5069445;28;19908;-87
2023/06/06 09:42:58;;;;;;;;;;;24.60;75.60;;;;;;5078294;28;20280;-87
2023/06/06 09:45:24;;;;;;;;;;;23.60;77.10;;;;;;5056345;28;20473;-87
2023/06/06 09:47:50;;;;;;;;;;;23.30;78.90;;;;;;5082382;28;19919;-87
2023/06/06 09:50:18;;;;;;;;;;;24.40;79.80;;;;;;5075004;28;19909;-87
2023/06/06 09:52:44;;;;;;;;;;;26.20;74.40;;;;;;5066962;28;19924;-88
2023/06/06 09:55:11;;;;;;;;;;;26.70;70.90;;;;;;5087344;28;20346;-85
2023/06/06 09:57:37;;;;;;;;;;;25.60;72.60;;;;;;5073095;28;19909;-87
2023/06/06 10:00:10;;;;;;;;;;;25.60;74.00;;;;;;5089815;28;19915;-88
2023/06/06 10:02:40;;;;;;;;;;;25.80;73.30;;;;;;5075851;28;19909;-87
2023/06/06 10:05:07;;;;;;;;;;;25.40;76.20;;;;;;5090874;28;19915;-88
2023/06/06 10:07:32;;;;;;;;;;;26.20;73.60;;;;;;5075586;28;19912;-88
2023/06/06 10:09:58;;;;;;;;;;;27.20;69.20;;;;;;5086289;28;19911;-88
2023/06/06 10:12:25;;;;;;;;;;;27.40;70.20;;;;;;5068464;28;19922;-87
2023/06/06 10:14:52;;;;;;;;;;;26.70;69.00;;;;;;5075018;28;19972;-88
2023/06/06 10:17:18;;;;;;;;;;;27.10;67.50;;;;;;5084802;28;19996;-89
2023/06/06 10:20:06;;;;;;;;;;;27.30;67.90;;;;;;5072229;28;19966;-88
2023/06/06 10:22:34;;;;;;;;;;;27.40;66.80;;;;;;5065095;28;19908;-88
2023/06/06 10:25:01;;;;;;;;;;;28.50;67.00;;;;;;5075974;28;19916;-88
2023/06/06 10:27:29;;;;;;;;;;;29.30;63.90;;;;;;5070163;28;19912;-89
2023/06/06 10:30:02;;;;;;;;;;;28.80;65.10;;;;;;5071507;28;20008;-89
2023/06/06 10:32:51;;;;;;;;;;;28.00;64.70;;;;;;5081645;28;19943;-88
2023/06/06 10:35:17;;;;;;;;;;;27.50;66.00;;;;;;5081834;28;19908;-88
2023/06/06 10:37:59;;;;;;;;;;;27.50;66.70;;;;;;5063429;28;19912;-89
2023/06/06 10:40:25;;;;;;;;;;;27.90;64.00;;;;;;5075132;28;19908;-89
2023/06/06 10:42:53;;;;;;;;;;;28.20;64.80;;;;;;5084384;28;20271;-88
2023/06/06 10:45:38;;;;;;;;;;;28.30;63.20;;;;;;5059976;28;19904;-88
2023/06/06 10:48:16;;;;;;;;;;;28.30;62.60;;;;;;5067810;28;19916;-88
2023/06/06 10:50:52;;;;;;;;;;;28.40;62.30;;;;;;5077521;28;20398;-89
2023/06/06 10:53:18;;;;;;;;;;;28.70;63.80;;;;;;5072720;28;20267;-89
2023/06/06 10:55:44;;;;;;;;;;;28.40;62.80;;;;;;5059731;28;19919;-88
2023/06/06 10:58:11;;;;;;;;;;;28.20;62.50;;;;;;5074794;28;19909;-89
2023/06/06 11:00:41;;;;;;;;;;;28.60;62.70;;;;;;5062011;28;20287;-89
2023/06/06 11:03:07;;;;;;;;;;;28.50;64.30;;;;;;5075384;28;19943;-90
2023/06/06 11:05:52;;;;;;;;;;;28.40;65.70;;;;;;5075197;28;20343;-89
2023/06/06 11:08:17;;;;;;;;;;;28.00;63.40;;;;;;5063153;28;19912;-88
2023/06/06 11:10:46;;;;;;;;;;;28.20;62.80;;;;;;5062054;28;19911;-88
2023/06/06 11:13:27;;;;;;;;;;;27.70;60.40;;;;;;5074784;28;19943;-88
2023/06/06 11:15:55;;;;;;;;;;;27.80;62.20;;;;;;5059000;28;19915;-88
2023/06/06 11:18:39;;;;;;;;;;;27.90;62.20;;;;;;5057751;28;19955;-88
2023/06/06 11:21:05;;;;;;;;;;;27.50;63.00;;;;;;5073338;28;19908;-87
2023/06/06 11:23:40;;;;;;;;;;;26.50;64.70;;;;;;5058006;28;19908;-88
2023/06/06 11:26:09;;;;;;;;;;;25.90;65.20;;;;;;5089344;28;19923;-88
2023/06/06 11:28:36;;;;;;;;;;;25.10;67.50;;;;;;5056115;28;19989;-88
2023/06/06 11:31:02;;;;;;;;;;;24.80;69.50;;;;;;5057339;28;19959;-87
2023/06/06 11:33:28;;;;;;;;;;;24.60;67.80;;;;;;5056199;28;19908;-88
2023/06/06 11:36:16;;;;;;;;;;;24.20;70.70;;;;;;5070011;28;19927;-87
2023/06/06 11:38:44;;;;;;;;;;;24.00;73.00;;;;;;5088829;28;20356;-88
2023/06/06 11:41:10;;;;;;;;;;;24.40;74.40;;;;;;5069693;28;19915;-88
2023/06/06 11:43:35;;;;;;;;;;;25.40;68.50;;;;;;5082563;28;19917;-88
2023/06/06 11:46:05;;;;;;;;;;;26.50;67.60;;;;;;5092098;28;19913;-89
2023/06/06 11:48:31;;;;;;;;;;;27.10;65.40;;;;;;5069189;28;19908;-88
2023/06/06 11:50:57;;;;;;;;;;;27.20;65.50;;;;;;5080098;28;19909;-89
2023/06/06 11:53:41;;;;;;;;;;;26.70;66.10;;;;;;5051553;28;20654;-89
2023/06/06 11:56:13;;;;;;;;;;;26.40;67.10;;;;;;5076204;28;19908;-88
2023/06/06 11:58:40;;;;;;;;;;;26.00;66.20;;;;;;5058203;28;19932;-88
2023/06/06 12:01:08;;;;;;;;;;;25.50;66.20;;;;;;5075185;28;19909;-88
2023/06/06 12:03:34;;;;;;;;;;;25.80;68.50;;;;;;5063557;28;20397;-89
2023/06/06 12:06:01;;;;;;;;;;;26.50;67.80;;;;;;5093553;28;19918;-88
2023/06/06 12:08:27;;;;;;;;;;;26.50;65.90;;;;;;5075068;28;19920;-87
2023/06/06 12:10:53;;;;;;;;;;;26.40;66.10;;;;;;5068470;28;19917;-85
2023/06/06 12:13:31;;;;;;;;;;;25.90;65.50;;;;;;5068167;28;19908;-89
2023/06/06 12:15:57;;;;;;;;;;;25.50;66.10;;;;;;5076634;28;19908;-88
2023/06/06 12:18:23;;;;;;;;;;;25.50;66.60;;;;;;5085805;28;19908;-88
2023/06/06 12:20:49;;;;;;;;;;;26.00;66.20;;;;;;5077144;28;19999;-87
2023/06/06 12:23:30;;;;;;;;;;;26.40;63.40;;;;;;5076523;28;19912;-88
2023/06/06 12:25:59;;;;;;;;;;;26.60;63.80;;;;;;5074498;28;19912;-87
2023/06/06 12:28:25;;;;;;;;;;;27.00;62.60;;;;;;5059123;28;20003;-86
2023/06/06 12:30:54;;;;;;;;;;;27.10;62.60;;;;;;5072053;28;19952;-87
2023/06/06 12:33:21;;;;;;;;;;;26.80;64.00;;;;;;5064634;28;19930;-87
2023/06/06 12:35:48;;;;;;;;;;;26.50;64.90;;;;;;5081563;28;19908;-87
2023/06/06 12:38:17;;;;;;;;;;;26.20;67.20;;;;;;5073770;28;20671;-86
2023/06/06 12:40:52;;;;;;;;;;;26.30;64.00;;;;;;5064973;28;19908;-87
2023/06/06 12:43:17;;;;;;;;;;;26.80;63.80;;;;;;5064369;28;19968;-87
2023/06/06 12:45:43;;;;;;;;;;;27.30;63.60;;;;;;5070138;28;19919;-86
2023/06/06 12:48:09;;;;;;;;;;;27.10;63.60;;;;;;5080164;28;19909;-86
2023/06/06 12:50:34;;;;;;;;;;;27.00;63.60;;;;;;5060172;28;19954;-87
2023/06/06 12:53:02;;;;;;;;;;;28.00;61.30;;;;;;5067621;28;19908;-86
2023/06/06 12:55:28;;;;;;;;;;;29.30;62.40;;;;;;5071704;28;19916;-88
2023/06/06 12:57:54;;;;;;;;;;;30.10;58.40;;;;;;5063281;28;19908;-87
2023/06/06 13:00:32;;;;;;;;;;;29.80;58.20;;;;;;5102605;28;19908;-87
2023/06/06 13:02:58;;;;;;;;;;;29.70;57.80;;;;;;5063569;28;19909;-87
2023/06/06 13:05:50;;;;;;;;;;;30.00;56.60;;;;;;5092542;28;19908;-87
2023/06/06 13:08:16;;;;;;;;;;;29.20;58.10;;;;;;5076449;28;19927;-88
2023/06/06 13:10:42;;;;;;;;;;;28.10;59.70;;;;;;5064746;28;19952;-87
2023/06/06 13:13:08;;;;;;;;;;;27.00;63.80;;;;;;5081487;28;19916;-87
2023/06/06 13:15:33;;;;;;;;;;;26.20;63.80;;;;;;5075666;28;19926;-87
2023/06/06 13:17:59;;;;;;;;;;;26.10;64.10;;;;;;5063876;28;20284;-88
2023/06/06 13:20:25;;;;;;;;;;;26.00;65.00;;;;;;5090218;28;19912;-86
2023/06/06 13:23:21;;;;;;;;;;;26.00;63.90;;;;;;5076259;28;19915;-86
2023/06/06 13:25:49;;;;;;;;;;;26.20;64.10;;;;;;5072936;28;19920;-88
2023/06/06 13:28:15;;;;;;;;;;;27.30;63.10;;;;;;5077726;28;19916;-87
2023/06/06 13:30:41;;;;;;;;;;;28.30;61.60;;;;;;5077929;28;20018;-88
2023/06/06 13:33:06;;;;;;;;;;;29.40;58.70;;;;;;5077465;28;20406;-86
2023/06/06 13:35:32;;;;;;;;;;;29.70;58.40;;;;;;5059751;28;19904;-88
2023/06/06 13:37:57;;;;;;;;;;;29.80;58.70;;;;;;5076731;28;20003;-86
2023/06/06 13:40:23;;;;;;;;;;;29.30;58.40;;;;;;5077649;28;19912;-87
2023/06/06 13:42:48;;;;;;;;;;;29.00;58.80;;;;;;5076626;28;20271;-88
2023/06/06 13:45:14;;;;;;;;;;;29.20;59.10;;;;;;5075766;28;19912;-88
2023/06/06 13:47:40;;;;;;;;;;;28.20;58.30;;;;;;5076094;28;19952;-87
2023/06/06 13:50:06;;;;;;;;;;;27.60;60.60;;;;;;5076273;28;20405;-87
2023/06/06 13:52:34;;;;;;;;;;;26.70;59.90;;;;;;5075871;28;20398;-86
2023/06/06 13:55:00;;;;;;;;;;;26.20;61.40;;;;;;5075896;28;19912;-87
2023/06/06 13:57:28;;;;;;;;;;;25.60;62.80;;;;;;5059378;28;19958;-88
2023/06/06 13:59:54;;;;;;;6.60;4.40;;;25.20;64.00;;;;;;5058907;28;19991;-86
2023/06/06 14:02:21;;;;;;;7.43;3.92;;;24.90;65.90;;;;;;5076285;28;20123;-87
2023/06/06 14:04:47;;;;;;;6.10;3.88;;;25.20;67.60;;;;;;5075543;28;20028;-88
2023/06/06 14:07:14;;;;;;;;;;;26.50;65.40;;;;;;5075540;28;20031;-87
2023/06/06 14:09:39;;;;;;;;;;;27.40;63.70;;;;;;5075567;28;20354;-87
2023/06/06 14:12:05;;;;;;;;;;;27.70;62.60;;;;;;5075799;28;19908;-88
2023/06/06 14:14:30;;;;;;;;;;;28.00;62.00;;;;;;5076303;28;20314;-87
2023/06/06 14:16:56;;;;;;;;;;;29.00;60.70;;;;;;5076291;28;19934;-87
2023/06/06 14:19:50;;;;;;;;;;;30.10;59.20;;;;;;5059132;28;19983;-88